sensor_id;sensor_type;location;lat;lon;timestamp;P1;durP1;ratioP1;P2;durP2;ratioP2
51066;SDS011;37112;45.892;-123.962;2023-07-02T00:02:34;12.40;;;1.40;;
51066;SDS011;37112;45.892;-123.962;2023-07-02T00:04:57;2.70;;;0.60;;
51066;SDS011;37112;45.892;-123.962;2023-07-02T00:07:26;3.50;;;1.00;;
51066;SDS011;37112;45.892;-123.962;2023-07-02T00:09:57;9.50;;;2.00;;
51066;SDS011;37112;45.892;-123.962;2023-07-02T00:12:27;6.50;;;1.70;;
51066;SDS011;37112;45.892;-123.962;2023-07-02T00:14:58;4.20;;;1.00;;
51066;SDS011;37112;45.892;-123.962;2023-07-02T00:17:29;14.90;;;1.70;;
51066;SDS011;37112;45.892;-123.962;2023-07-02T00:20:00;4.30;;;1.30;;
51066;SDS011;37112;45.892;-123.962;2023-07-02T00:22:35;5.30;;;1.10;;
51066;SDS011;37112;45.892;-123.962;2023-07-02T00:25:05;6.80;;;1.00;;
51066;SDS011;37112;45.892;-123.962;2023-07-02T00:27:36;6.90;;;1.40;;
51066;SDS011;37112;45.892;-123.962;2023-07-02T00:29:59;4.20;;;1.10;;
51066;SDS011;37112;45.892;-123.962;2023-07-02T00:32:19;7.20;;;1.10;;
51066;SDS011;37112;45.892;-123.962;2023-07-02T00:34:49;6.70;;;1.70;;
51066;SDS011;37112;45.892;-123.962;2023-07-02T00:37:20;8.50;;;2.20;;
51066;SDS011;37112;45.892;-123.962;2023-07-02T00:39:50;9.90;;;1.30;;
51066;SDS011;37112;45.892;-123.962;2023-07-02T00:42:20;6.00;;;1.50;;
51066;SDS011;37112;45.892;-123.962;2023-07-02T00:44:55;6.50;;;1.30;;
51066;SDS011;37112;45.892;-123.962;2023-07-02T00:47:29;11.50;;;1.40;;
51066;SDS011;37112;45.892;-123.962;2023-07-02T00:50:01;2.50;;;0.70;;
51066;SDS011;37112;45.892;-123.962;2023-07-02T00:52:35;3.60;;;0.80;;
51066;SDS011;37112;45.892;-123.962;2023-07-02T00:55:06;6.70;;;0.90;;
51066;SDS011;37112;45.892;-123.962;2023-07-02T00:57:36;2.30;;;0.70;;
51066;SDS011;37112;45.892;-123.962;2023-07-02T01:00:09;2.50;;;0.80;;
51066;SDS011;37112;45.892;-123.962;2023-07-02T01:02:40;9.80;;;1.80;;
51066;SDS011;37112;45.892;-123.962;2023-07-02T01:05:15;7.40;;;1.30;;
51066;SDS011;37112;45.892;-123.962;2023-07-02T01:07:36;15.40;;;3.20;;
51066;SDS011;37112;45.892;-123.962;2023-07-02T01:10:08;7.70;;;1.80;;
51066;SDS011;37112;45.892;-123.962;2023-07-02T01:12:27;5.70;;;1.10;;
51066;SDS011;37112;45.892;-123.962;2023-07-02T01:14:59;12.30;;;1.80;;
51066;SDS011;37112;45.892;-123.962;2023-07-02T01:17:32;1.10;;;0.60;;
51066;SDS011;37112;45.892;-123.962;2023-07-02T01:20:08;7.00;;;2.00;;
51066;SDS011;37112;45.892;-123.962;2023-07-02T01:22:40;13.80;;;1.50;;
51066;SDS011;37112;45.892;-123.962;2023-07-02T01:25:11;6.10;;;0.90;;
51066;SDS011;37112;45.892;-123.962;2023-07-02T01:30:29;4.40;;;1.20;;
51066;SDS011;37112;45.892;-123.962;2023-07-02T01:32:56;4.00;;;1.00;;
51066;SDS011;37112;45.892;-123.962;2023-07-02T01:35:49;10.00;;;1.40;;
51066;SDS011;37112;45.892;-123.962;2023-07-02T01:38:19;2.20;;;0.60;;
51066;SDS011;37112;45.892;-123.962;2023-07-02T01:40:53;7.90;;;1.10;;
51066;SDS011;37112;45.892;-123.962;2023-07-02T01:43:23;5.60;;;1.20;;
51066;SDS011;37112;45.892;-123.962;2023-07-02T01:45:54;0.50;;;0.30;;
51066;SDS011;37112;45.892;-123.962;2023-07-02T01:58:17;4.30;;;1.10;;
51066;SDS011;37112;45.892;-123.962;2023-07-02T02:00:48;0.70;;;0.50;;
51066;SDS011;37112;45.892;-123.962;2023-07-02T02:03:19;1.00;;;0.60;;
51066;SDS011;37112;45.892;-123.962;2023-07-02T02:05:50;3.50;;;0.80;;
51066;SDS011;37112;45.892;-123.962;2023-07-02T02:08:21;11.60;;;1.30;;
51066;SDS011;37112;45.892;-123.962;2023-07-02T02:10:52;5.80;;;1.00;;
51066;SDS011;37112;45.892;-123.962;2023-07-02T02:13:22;7.80;;;1.00;;
51066;SDS011;37112;45.892;-123.962;2023-07-02T02:15:53;7.80;;;1.90;;
51066;SDS011;37112;45.892;-123.962;2023-07-02T02:18:23;15.00;;;1.60;;
51066;SDS011;37112;45.892;-123.962;2023-07-02T02:20:54;15.80;;;3.20;;
51066;SDS011;37112;45.892;-123.962;2023-07-02T02:23:12;4.50;;;1.20;;
51066;SDS011;37112;45.892;-123.962;2023-07-02T02:25:43;8.70;;;1.50;;
51066;SDS011;37112;45.892;-123.962;2023-07-02T02:28:13;2.50;;;0.70;;
51066;SDS011;37112;45.892;-123.962;2023-07-02T02:30:44;9.70;;;1.80;;
51066;SDS011;37112;45.892;-123.962;2023-07-02T02:33:08;12.40;;;1.90;;
51066;SDS011;37112;45.892;-123.962;2023-07-02T02:35:28;2.20;;;1.20;;
51066;SDS011;37112;45.892;-123.962;2023-07-02T02:38:02;11.70;;;1.20;;
51066;SDS011;37112;45.892;-123.962;2023-07-02T02:40:32;4.90;;;0.90;;
51066;SDS011;37112;45.892;-123.962;2023-07-02T02:42:53;10.50;;;1.70;;
51066;SDS011;37112;45.892;-123.962;2023-07-02T02:45:12;8.90;;;2.00;;
51066;SDS011;37112;45.892;-123.962;2023-07-02T02:47:35;6.10;;;2.00;;
51066;SDS011;37112;45.892;-123.962;2023-07-02T02:49:47;16.30;;;2.10;;
51066;SDS011;37112;45.892;-123.962;2023-07-02T02:52:20;12.50;;;1.70;;
51066;SDS011;37112;45.892;-123.962;2023-07-02T02:54:41;16.80;;;2.30;;
51066;SDS011;37112;45.892;-123.962;2023-07-02T02:57:11;3.60;;;1.10;;
51066;SDS011;37112;45.892;-123.962;2023-07-02T02:59:32;10.20;;;1.40;;
51066;SDS011;37112;45.892;-123.962;2023-07-02T03:01:49;4.30;;;1.10;;
51066;SDS011;37112;45.892;-123.962;2023-07-02T03:04:17;11.50;;;1.90;;
51066;SDS011;37112;45.892;-123.962;2023-07-02T03:06:46;3.40;;;1.20;;
51066;SDS011;37112;45.892;-123.962;2023-07-02T03:09:05;9.00;;;1.50;;
51066;SDS011;37112;45.892;-123.962;2023-07-02T03:11:18;4.30;;;1.40;;
51066;SDS011;37112;45.892;-123.962;2023-07-02T03:13:49;5.30;;;1.70;;
51066;SDS011;37112;45.892;-123.962;2023-07-02T03:16:10;10.20;;;2.20;;
51066;SDS011;37112;45.892;-123.962;2023-07-02T03:18:41;14.10;;;2.30;;
51066;SDS011;37112;45.892;-123.962;2023-07-02T03:21:12;7.80;;;1.40;;
51066;SDS011;37112;45.892;-123.962;2023-07-02T03:23:33;17.70;;;2.60;;
51066;SDS011;37112;45.892;-123.962;2023-07-02T03:28:24;7.10;;;2.70;;
51066;SDS011;37112;45.892;-123.962;2023-07-02T03:30:43;7.90;;;1.50;;
51066;SDS011;37112;45.892;-123.962;2023-07-02T03:33:03;2.10;;;1.20;;
51066;SDS011;37112;45.892;-123.962;2023-07-02T03:35:33;2.50;;;1.30;;
51066;SDS011;37112;45.892;-123.962;2023-07-02T03:38:04;4.80;;;1.10;;
51066;SDS011;37112;45.892;-123.962;2023-07-02T03:40:15;2.40;;;1.00;;
51066;SDS011;37112;45.892;-123.962;2023-07-02T03:42:47;3.30;;;1.20;;
51066;SDS011;37112;45.892;-123.962;2023-07-02T03:45:07;3.30;;;1.00;;
51066;SDS011;37112;45.892;-123.962;2023-07-02T03:47:38;4.80;;;1.40;;
51066;SDS011;37112;45.892;-123.962;2023-07-02T03:49:59;2.00;;;0.60;;
51066;SDS011;37112;45.892;-123.962;2023-07-02T03:52:12;1.80;;;0.90;;
51066;SDS011;37112;45.892;-123.962;2023-07-02T03:54:37;3.00;;;0.70;;
51066;SDS011;37112;45.892;-123.962;2023-07-02T03:57:07;1.50;;;0.70;;
51066;SDS011;37112;45.892;-123.962;2023-07-02T03:59:38;1.90;;;0.80;;
51066;SDS011;37112;45.892;-123.962;2023-07-02T04:01:51;3.00;;;0.70;;
51066;SDS011;37112;45.892;-123.962;2023-07-02T04:04:21;2.30;;;1.10;;
51066;SDS011;37112;45.892;-123.962;2023-07-02T04:06:52;2.10;;;1.00;;
51066;SDS011;37112;45.892;-123.962;2023-07-02T04:09:14;2.60;;;0.90;;
51066;SDS011;37112;45.892;-123.962;2023-07-02T04:11:40;1.70;;;1.00;;
51066;SDS011;37112;45.892;-123.962;2023-07-02T04:14:00;2.40;;;0.90;;
51066;SDS011;37112;45.892;-123.962;2023-07-02T04:16:31;2.80;;;0.80;;
51066;SDS011;37112;45.892;-123.962;2023-07-02T04:19:01;2.50;;;1.10;;
51066;SDS011;37112;45.892;-123.962;2023-07-02T04:21:11;1.10;;;0.70;;
51066;SDS011;37112;45.892;-123.962;2023-07-02T04:23:42;1.70;;;0.70;;
51066;SDS011;37112;45.892;-123.962;2023-07-02T04:25:58;1.80;;;0.90;;
51066;SDS011;37112;45.892;-123.962;2023-07-02T04:28:42;3.00;;;1.10;;
51066;SDS011;37112;45.892;-123.962;2023-07-02T04:31:06;2.80;;;0.90;;
51066;SDS011;37112;45.892;-123.962;2023-07-02T04:33:37;4.50;;;1.10;;
51066;SDS011;37112;45.892;-123.962;2023-07-02T04:36:07;3.10;;;1.00;;
51066;SDS011;37112;45.892;-123.962;2023-07-02T04:38:38;4.20;;;2.00;;
51066;SDS011;37112;45.892;-123.962;2023-07-02T04:41:39;4.10;;;1.60;;
51066;SDS011;37112;45.892;-123.962;2023-07-02T04:44:12;4.40;;;1.60;;
51066;SDS011;37112;45.892;-123.962;2023-07-02T04:46:53;2.60;;;1.50;;
51066;SDS011;37112;45.892;-123.962;2023-07-02T04:49:04;3.00;;;2.00;;
51066;SDS011;37112;45.892;-123.962;2023-07-02T04:51:23;3.60;;;1.10;;
51066;SDS011;37112;45.892;-123.962;2023-07-02T04:53:36;4.60;;;1.70;;
51066;SDS011;37112;45.892;-123.962;2023-07-02T04:56:08;1.70;;;1.00;;
51066;SDS011;37112;45.892;-123.962;2023-07-02T04:58:38;2.80;;;1.20;;
51066;SDS011;37112;45.892;-123.962;2023-07-02T05:01:10;3.50;;;1.80;;
51066;SDS011;37112;45.892;-123.962;2023-07-02T05:03:41;2.20;;;1.60;;
51066;SDS011;37112;45.892;-123.962;2023-07-02T05:06:11;2.70;;;1.60;;
51066;SDS011;37112;45.892;-123.962;2023-07-02T05:08:42;3.00;;;1.60;;
51066;SDS011;37112;45.892;-123.962;2023-07-02T05:11:05;4.70;;;2.90;;
51066;SDS011;37112;45.892;-123.962;2023-07-02T05:13:26;6.70;;;2.70;;
51066;SDS011;37112;45.892;-123.962;2023-07-02T05:16:00;3.20;;;2.00;;
51066;SDS011;37112;45.892;-123.962;2023-07-02T05:18:34;5.30;;;1.60;;
51066;SDS011;37112;45.892;-123.962;2023-07-02T05:21:04;4.10;;;1.90;;
51066;SDS011;37112;45.892;-123.962;2023-07-02T05:23:35;2.80;;;1.10;;
51066;SDS011;37112;45.892;-123.962;2023-07-02T05:26:06;2.80;;;1.40;;
51066;SDS011;37112;45.892;-123.962;2023-07-02T05:28:37;8.20;;;2.30;;
51066;SDS011;37112;45.892;-123.962;2023-07-02T05:30:57;4.20;;;1.60;;
51066;SDS011;37112;45.892;-123.962;2023-07-02T05:33:39;3.50;;;1.40;;
51066;SDS011;37112;45.892;-123.962;2023-07-02T05:36:09;2.90;;;1.40;;
51066;SDS011;37112;45.892;-123.962;2023-07-02T05:38:40;3.80;;;1.50;;
51066;SDS011;37112;45.892;-123.962;2023-07-02T05:41:03;5.90;;;1.90;;
51066;SDS011;37112;45.892;-123.962;2023-07-02T05:43:34;4.70;;;1.20;;
51066;SDS011;37112;45.892;-123.962;2023-07-02T05:46:04;4.20;;;1.20;;
51066;SDS011;37112;45.892;-123.962;2023-07-02T05:48:38;3.60;;;1.00;;
51066;SDS011;37112;45.892;-123.962;2023-07-02T05:51:09;1.50;;;0.90;;
51066;SDS011;37112;45.892;-123.962;2023-07-02T05:53:29;3.20;;;1.20;;
51066;SDS011;37112;45.892;-123.962;2023-07-02T05:55:40;3.10;;;0.90;;
51066;SDS011;37112;45.892;-123.962;2023-07-02T05:58:10;4.40;;;1.40;;
51066;SDS011;37112;45.892;-123.962;2023-07-02T06:01:13;3.90;;;1.40;;
51066;SDS011;37112;45.892;-123.962;2023-07-02T06:04:13;1.80;;;1.10;;
51066;SDS011;37112;45.892;-123.962;2023-07-02T06:06:30;4.30;;;1.10;;
51066;SDS011;37112;45.892;-123.962;2023-07-02T06:08:50;2.10;;;0.80;;
51066;SDS011;37112;45.892;-123.962;2023-07-02T06:11:22;3.40;;;1.10;;
51066;SDS011;37112;45.892;-123.962;2023-07-02T06:13:56;4.50;;;1.50;;
51066;SDS011;37112;45.892;-123.962;2023-07-02T06:16:29;4.30;;;1.00;;
51066;SDS011;37112;45.892;-123.962;2023-07-02T06:19:00;11.30;;;2.90;;
51066;SDS011;37112;45.892;-123.962;2023-07-02T06:21:31;28.30;;;3.50;;
51066;SDS011;37112;45.892;-123.962;2023-07-02T06:24:01;3.50;;;1.20;;
51066;SDS011;37112;45.892;-123.962;2023-07-02T06:26:33;8.20;;;2.60;;
51066;SDS011;37112;45.892;-123.962;2023-07-02T06:28:59;16.20;;;3.30;;
51066;SDS011;37112;45.892;-123.962;2023-07-02T06:31:19;19.20;;;3.60;;
51066;SDS011;37112;45.892;-123.962;2023-07-02T06:33:50;12.50;;;2.30;;
51066;SDS011;37112;45.892;-123.962;2023-07-02T06:36:24;17.90;;;3.70;;
51066;SDS011;37112;45.892;-123.962;2023-07-02T06:38:47;4.40;;;1.30;;
51066;SDS011;37112;45.892;-123.962;2023-07-02T06:41:18;22.40;;;3.60;;
51066;SDS011;37112;45.892;-123.962;2023-07-02T06:43:47;14.10;;;2.80;;
51066;SDS011;37112;45.892;-123.962;2023-07-02T06:46:19;15.10;;;3.80;;
51066;SDS011;37112;45.892;-123.962;2023-07-02T06:48:49;8.60;;;2.20;;
51066;SDS011;37112;45.892;-123.962;2023-07-02T06:51:22;29.90;;;6.40;;
51066;SDS011;37112;45.892;-123.962;2023-07-02T06:53:42;15.30;;;3.30;;
51066;SDS011;37112;45.892;-123.962;2023-07-02T06:56:03;14.50;;;2.40;;
51066;SDS011;37112;45.892;-123.962;2023-07-02T06:58:35;6.80;;;2.40;;
51066;SDS011;37112;45.892;-123.962;2023-07-02T07:01:06;4.80;;;0.90;;
51066;SDS011;37112;45.892;-123.962;2023-07-02T07:03:37;2.00;;;0.80;;
51066;SDS011;37112;45.892;-123.962;2023-07-02T07:06:07;5.30;;;1.30;;
51066;SDS011;37112;45.892;-123.962;2023-07-02T07:08:39;17.00;;;2.50;;
51066;SDS011;37112;45.892;-123.962;2023-07-02T07:11:10;8.60;;;2.50;;
51066;SDS011;37112;45.892;-123.962;2023-07-02T07:13:40;13.40;;;3.00;;
51066;SDS011;37112;45.892;-123.962;2023-07-02T07:16:10;17.00;;;3.00;;
51066;SDS011;37112;45.892;-123.962;2023-07-02T07:18:41;6.90;;;1.40;;
51066;SDS011;37112;45.892;-123.962;2023-07-02T07:21:13;20.10;;;3.70;;
51066;SDS011;37112;45.892;-123.962;2023-07-02T07:23:44;13.90;;;2.40;;
51066;SDS011;37112;45.892;-123.962;2023-07-02T07:26:03;8.10;;;1.00;;
51066;SDS011;37112;45.892;-123.962;2023-07-02T07:28:34;23.60;;;4.00;;
51066;SDS011;37112;45.892;-123.962;2023-07-02T07:31:04;17.70;;;4.00;;
51066;SDS011;37112;45.892;-123.962;2023-07-02T07:33:35;17.70;;;4.20;;
51066;SDS011;37112;45.892;-123.962;2023-07-02T07:36:07;25.30;;;5.00;;
51066;SDS011;37112;45.892;-123.962;2023-07-02T07:38:37;31.00;;;6.40;;
51066;SDS011;37112;45.892;-123.962;2023-07-02T07:41:08;34.00;;;5.20;;
51066;SDS011;37112;45.892;-123.962;2023-07-02T07:43:28;24.30;;;3.80;;
51066;SDS011;37112;45.892;-123.962;2023-07-02T07:46:00;11.90;;;2.50;;
51066;SDS011;37112;45.892;-123.962;2023-07-02T07:48:19;5.40;;;1.60;;
51066;SDS011;37112;45.892;-123.962;2023-07-02T07:50:49;2.70;;;0.90;;
51066;SDS011;37112;45.892;-123.962;2023-07-02T07:53:19;2.40;;;0.90;;
51066;SDS011;37112;45.892;-123.962;2023-07-02T07:55:50;2.60;;;1.00;;
51066;SDS011;37112;45.892;-123.962;2023-07-02T07:58:20;3.20;;;1.20;;
51066;SDS011;37112;45.892;-123.962;2023-07-02T08:00:51;2.50;;;1.00;;
51066;SDS011;37112;45.892;-123.962;2023-07-02T08:03:21;2.30;;;0.70;;
51066;SDS011;37112;45.892;-123.962;2023-07-02T08:05:40;2.60;;;1.00;;
51066;SDS011;37112;45.892;-123.962;2023-07-02T08:08:10;3.10;;;0.70;;
51066;SDS011;37112;45.892;-123.962;2023-07-02T08:10:41;2.10;;;0.90;;
51066;SDS011;37112;45.892;-123.962;2023-07-02T08:13:13;2.60;;;1.10;;
51066;SDS011;37112;45.892;-123.962;2023-07-02T08:15:44;3.40;;;2.00;;
51066;SDS011;37112;45.892;-123.962;2023-07-02T08:18:15;4.10;;;1.50;;
51066;SDS011;37112;45.892;-123.962;2023-07-02T08:20:46;4.50;;;1.20;;
51066;SDS011;37112;45.892;-123.962;2023-07-02T08:23:17;3.70;;;1.30;;
51066;SDS011;37112;45.892;-123.962;2023-07-02T08:25:49;3.60;;;1.30;;
51066;SDS011;37112;45.892;-123.962;2023-07-02T08:28:08;5.60;;;0.90;;
51066;SDS011;37112;45.892;-123.962;2023-07-02T08:30:39;3.90;;;0.90;;
51066;SDS011;37112;45.892;-123.962;2023-07-02T08:33:09;4.40;;;0.90;;
51066;SDS011;37112;45.892;-123.962;2023-07-02T08:35:39;1.60;;;1.00;;
51066;SDS011;37112;45.892;-123.962;2023-07-02T08:38:10;4.20;;;1.00;;
51066;SDS011;37112;45.892;-123.962;2023-07-02T08:40:41;2.20;;;0.80;;
51066;SDS011;37112;45.892;-123.962;2023-07-02T08:43:12;2.40;;;0.90;;
51066;SDS011;37112;45.892;-123.962;2023-07-02T08:45:43;4.50;;;0.90;;
51066;SDS011;37112;45.892;-123.962;2023-07-02T08:48:02;2.40;;;0.90;;
51066;SDS011;37112;45.892;-123.962;2023-07-02T08:50:34;3.10;;;0.90;;
51066;SDS011;37112;45.892;-123.962;2023-07-02T08:53:05;3.10;;;1.00;;
51066;SDS011;37112;45.892;-123.962;2023-07-02T08:55:35;4.90;;;1.30;;
51066;SDS011;37112;45.892;-123.962;2023-07-02T08:58:06;4.30;;;1.00;;
51066;SDS011;37112;45.892;-123.962;2023-07-02T09:00:36;3.50;;;1.10;;
51066;SDS011;37112;45.892;-123.962;2023-07-02T09:03:14;5.00;;;1.20;;
51066;SDS011;37112;45.892;-123.962;2023-07-02T09:05:52;2.60;;;1.00;;
51066;SDS011;37112;45.892;-123.962;2023-07-02T09:08:26;2.40;;;0.90;;
51066;SDS011;37112;45.892;-123.962;2023-07-02T09:10:49;5.40;;;1.00;;
51066;SDS011;37112;45.892;-123.962;2023-07-02T09:13:19;5.00;;;1.30;;
51066;SDS011;37112;45.892;-123.962;2023-07-02T09:15:49;3.00;;;1.90;;
51066;SDS011;37112;45.892;-123.962;2023-07-02T09:18:21;6.80;;;2.10;;
51066;SDS011;37112;45.892;-123.962;2023-07-02T09:20:53;3.50;;;0.80;;
51066;SDS011;37112;45.892;-123.962;2023-07-02T09:23:31;4.50;;;1.30;;
51066;SDS011;37112;45.892;-123.962;2023-07-02T09:26:03;6.00;;;1.10;;
51066;SDS011;37112;45.892;-123.962;2023-07-02T09:28:33;4.40;;;1.90;;
51066;SDS011;37112;45.892;-123.962;2023-07-02T09:30:55;7.60;;;1.30;;
51066;SDS011;37112;45.892;-123.962;2023-07-02T09:33:25;3.90;;;0.90;;
51066;SDS011;37112;45.892;-123.962;2023-07-02T09:35:57;4.10;;;1.10;;
51066;SDS011;37112;45.892;-123.962;2023-07-02T09:38:27;7.00;;;2.20;;
51066;SDS011;37112;45.892;-123.962;2023-07-02T09:40:51;8.30;;;1.30;;
51066;SDS011;37112;45.892;-123.962;2023-07-02T09:43:22;3.50;;;1.20;;
51066;SDS011;37112;45.892;-123.962;2023-07-02T09:45:54;2.70;;;0.80;;
51066;SDS011;37112;45.892;-123.962;2023-07-02T09:48:24;3.30;;;0.80;;
51066;SDS011;37112;45.892;-123.962;2023-07-02T09:51:00;2.80;;;0.90;;
51066;SDS011;37112;45.892;-123.962;2023-07-02T09:53:31;3.90;;;0.80;;
51066;SDS011;37112;45.892;-123.962;2023-07-02T09:56:02;7.00;;;1.10;;
51066;SDS011;37112;45.892;-123.962;2023-07-02T09:58:35;9.10;;;2.70;;
51066;SDS011;37112;45.892;-123.962;2023-07-02T10:01:06;5.50;;;1.30;;
51066;SDS011;37112;45.892;-123.962;2023-07-02T10:03:38;7.70;;;1.30;;
51066;SDS011;37112;45.892;-123.962;2023-07-02T10:06:09;6.50;;;1.20;;
51066;SDS011;37112;45.892;-123.962;2023-07-02T10:08:39;6.10;;;1.40;;
51066;SDS011;37112;45.892;-123.962;2023-07-02T10:11:20;6.00;;;1.30;;
51066;SDS011;37112;45.892;-123.962;2023-07-02T10:14:01;7.20;;;1.10;;
51066;SDS011;37112;45.892;-123.962;2023-07-02T10:16:31;3.60;;;1.10;;
51066;SDS011;37112;45.892;-123.962;2023-07-02T10:19:11;4.40;;;1.00;;
51066;SDS011;37112;45.892;-123.962;2023-07-02T10:21:43;5.80;;;1.40;;
51066;SDS011;37112;45.892;-123.962;2023-07-02T10:24:17;9.10;;;1.50;;
51066;SDS011;37112;45.892;-123.962;2023-07-02T10:26:54;12.70;;;1.70;;
51066;SDS011;37112;45.892;-123.962;2023-07-02T10:29:26;8.20;;;1.90;;
51066;SDS011;37112;45.892;-123.962;2023-07-02T10:31:57;8.40;;;1.60;;
51066;SDS011;37112;45.892;-123.962;2023-07-02T10:34:33;8.50;;;1.20;;
51066;SDS011;37112;45.892;-123.962;2023-07-02T10:36:54;7.40;;;1.60;;
51066;SDS011;37112;45.892;-123.962;2023-07-02T10:39:25;8.70;;;2.30;;
51066;SDS011;37112;45.892;-123.962;2023-07-02T10:42:06;8.20;;;1.50;;
51066;SDS011;37112;45.892;-123.962;2023-07-02T10:44:47;6.10;;;1.30;;
51066;SDS011;37112;45.892;-123.962;2023-07-02T10:47:19;7.30;;;1.80;;
51066;SDS011;37112;45.892;-123.962;2023-07-02T10:49:49;6.40;;;1.20;;
51066;SDS011;37112;45.892;-123.962;2023-07-02T10:52:09;8.40;;;1.60;;
51066;SDS011;37112;45.892;-123.962;2023-07-02T10:54:42;11.60;;;1.60;;
51066;SDS011;37112;45.892;-123.962;2023-07-02T10:57:14;7.10;;;1.70;;
51066;SDS011;37112;45.892;-123.962;2023-07-02T10:59:49;6.20;;;1.70;;
51066;SDS011;37112;45.892;-123.962;2023-07-02T11:02:19;8.10;;;1.60;;
51066;SDS011;37112;45.892;-123.962;2023-07-02T11:04:45;9.50;;;2.20;;
51066;SDS011;37112;45.892;-123.962;2023-07-02T11:07:05;14.20;;;1.80;;
51066;SDS011;37112;45.892;-123.962;2023-07-02T11:09:38;6.90;;;1.50;;
51066;SDS011;37112;45.892;-123.962;2023-07-02T11:12:18;7.50;;;1.70;;
51066;SDS011;37112;45.892;-123.962;2023-07-02T11:14:55;8.00;;;1.50;;
51066;SDS011;37112;45.892;-123.962;2023-07-02T11:17:36;8.40;;;1.40;;
51066;SDS011;37112;45.892;-123.962;2023-07-02T11:20:08;12.50;;;1.80;;
51066;SDS011;37112;45.892;-123.962;2023-07-02T11:22:40;12.10;;;2.10;;
51066;SDS011;37112;45.892;-123.962;2023-07-02T11:25:11;10.40;;;2.20;;
51066;SDS011;37112;45.892;-123.962;2023-07-02T11:27:44;7.60;;;1.40;;
51066;SDS011;37112;45.892;-123.962;2023-07-02T11:30:15;11.20;;;2.10;;
51066;SDS011;37112;45.892;-123.962;2023-07-02T11:32:49;10.00;;;2.40;;
51066;SDS011;37112;45.892;-123.962;2023-07-02T11:35:21;13.30;;;2.10;;
51066;SDS011;37112;45.892;-123.962;2023-07-02T11:38:02;7.00;;;1.70;;
51066;SDS011;37112;45.892;-123.962;2023-07-02T11:40:33;12.30;;;2.80;;
51066;SDS011;37112;45.892;-123.962;2023-07-02T11:43:04;14.30;;;2.00;;
51066;SDS011;37112;45.892;-123.962;2023-07-02T11:45:54;8.40;;;2.00;;
51066;SDS011;37112;45.892;-123.962;2023-07-02T11:48:25;12.20;;;1.70;;
51066;SDS011;37112;45.892;-123.962;2023-07-02T11:50:45;13.70;;;2.00;;
51066;SDS011;37112;45.892;-123.962;2023-07-02T11:53:08;9.70;;;1.90;;
51066;SDS011;37112;45.892;-123.962;2023-07-02T11:55:39;9.30;;;1.70;;
51066;SDS011;37112;45.892;-123.962;2023-07-02T11:58:09;13.20;;;2.60;;
51066;SDS011;37112;45.892;-123.962;2023-07-02T12:00:39;14.90;;;1.90;;
51066;SDS011;37112;45.892;-123.962;2023-07-02T12:03:11;11.70;;;2.40;;
51066;SDS011;37112;45.892;-123.962;2023-07-02T12:05:30;9.60;;;1.80;;
51066;SDS011;37112;45.892;-123.962;2023-07-02T12:08:01;8.10;;;1.50;;
51066;SDS011;37112;45.892;-123.962;2023-07-02T12:10:32;11.20;;;2.00;;
51066;SDS011;37112;45.892;-123.962;2023-07-02T12:13:04;9.00;;;1.80;;
51066;SDS011;37112;45.892;-123.962;2023-07-02T12:15:35;13.30;;;2.50;;
51066;SDS011;37112;45.892;-123.962;2023-07-02T12:17:54;11.00;;;1.70;;
51066;SDS011;37112;45.892;-123.962;2023-07-02T12:20:24;10.10;;;2.30;;
51066;SDS011;37112;45.892;-123.962;2023-07-02T12:22:55;18.40;;;2.00;;
51066;SDS011;37112;45.892;-123.962;2023-07-02T12:25:14;10.30;;;2.00;;
51066;SDS011;37112;45.892;-123.962;2023-07-02T12:27:45;9.60;;;1.80;;
51066;SDS011;37112;45.892;-123.962;2023-07-02T12:30:15;10.80;;;1.70;;
51066;SDS011;37112;45.892;-123.962;2023-07-02T12:32:46;10.90;;;1.70;;
51066;SDS011;37112;45.892;-123.962;2023-07-02T12:35:16;14.40;;;2.60;;
51066;SDS011;37112;45.892;-123.962;2023-07-02T12:37:44;11.00;;;1.80;;
51066;SDS011;37112;45.892;-123.962;2023-07-02T12:40:15;12.70;;;1.80;;
51066;SDS011;37112;45.892;-123.962;2023-07-02T12:42:47;18.50;;;2.70;;
51066;SDS011;37112;45.892;-123.962;2023-07-02T12:45:17;11.90;;;2.60;;
51066;SDS011;37112;45.892;-123.962;2023-07-02T12:47:36;12.70;;;2.80;;
51066;SDS011;37112;45.892;-123.962;2023-07-02T12:50:08;15.30;;;2.80;;
51066;SDS011;37112;45.892;-123.962;2023-07-02T12:52:39;9.90;;;1.40;;
51066;SDS011;37112;45.892;-123.962;2023-07-02T12:55:09;10.50;;;1.80;;
51066;SDS011;37112;45.892;-123.962;2023-07-02T12:57:39;10.50;;;2.20;;
51066;SDS011;37112;45.892;-123.962;2023-07-02T13:00:11;9.90;;;1.90;;
51066;SDS011;37112;45.892;-123.962;2023-07-02T13:02:42;13.80;;;2.30;;
51066;SDS011;37112;45.892;-123.962;2023-07-02T13:05:29;13.10;;;2.70;;
51066;SDS011;37112;45.892;-123.962;2023-07-02T13:08:00;12.80;;;3.40;;
51066;SDS011;37112;45.892;-123.962;2023-07-02T13:10:30;11.70;;;2.10;;
51066;SDS011;37112;45.892;-123.962;2023-07-02T13:12:51;11.80;;;2.30;;
51066;SDS011;37112;45.892;-123.962;2023-07-02T13:15:30;17.50;;;2.50;;
51066;SDS011;37112;45.892;-123.962;2023-07-02T13:17:55;13.10;;;1.90;;
51066;SDS011;37112;45.892;-123.962;2023-07-02T13:20:26;12.00;;;1.80;;
51066;SDS011;37112;45.892;-123.962;2023-07-02T13:22:56;11.50;;;2.60;;
51066;SDS011;37112;45.892;-123.962;2023-07-02T13:25:26;12.80;;;1.70;;
51066;SDS011;37112;45.892;-123.962;2023-07-02T13:27:57;10.90;;;1.90;;
51066;SDS011;37112;45.892;-123.962;2023-07-02T13:30:21;13.00;;;2.20;;
51066;SDS011;37112;45.892;-123.962;2023-07-02T13:32:52;12.70;;;1.70;;
51066;SDS011;37112;45.892;-123.962;2023-07-02T13:35:23;20.50;;;3.20;;
51066;SDS011;37112;45.892;-123.962;2023-07-02T13:37:53;12.10;;;2.40;;
51066;SDS011;37112;45.892;-123.962;2023-07-02T13:40:15;8.90;;;2.10;;
51066;SDS011;37112;45.892;-123.962;2023-07-02T13:42:34;10.60;;;1.70;;
51066;SDS011;37112;45.892;-123.962;2023-07-02T13:45:07;10.60;;;2.60;;
51066;SDS011;37112;45.892;-123.962;2023-07-02T13:47:37;14.80;;;2.50;;
51066;SDS011;37112;45.892;-123.962;2023-07-02T13:50:08;6.90;;;1.80;;
51066;SDS011;37112;45.892;-123.962;2023-07-02T13:52:40;13.00;;;2.40;;
51066;SDS011;37112;45.892;-123.962;2023-07-02T13:55:13;14.00;;;2.70;;
51066;SDS011;37112;45.892;-123.962;2023-07-02T13:57:44;13.30;;;2.50;;
51066;SDS011;37112;45.892;-123.962;2023-07-02T14:00:15;11.30;;;1.70;;
51066;SDS011;37112;45.892;-123.962;2023-07-02T14:02:46;11.80;;;2.30;;
51066;SDS011;37112;45.892;-123.962;2023-07-02T14:05:16;10.80;;;2.10;;
51066;SDS011;37112;45.892;-123.962;2023-07-02T14:07:47;22.00;;;4.30;;
51066;SDS011;37112;45.892;-123.962;2023-07-02T14:10:07;12.50;;;2.50;;
51066;SDS011;37112;45.892;-123.962;2023-07-02T14:12:35;15.00;;;2.80;;
51066;SDS011;37112;45.892;-123.962;2023-07-02T14:15:06;13.90;;;2.60;;
51066;SDS011;37112;45.892;-123.962;2023-07-02T14:17:38;15.70;;;2.80;;
51066;SDS011;37112;45.892;-123.962;2023-07-02T14:20:12;10.50;;;2.20;;
51066;SDS011;37112;45.892;-123.962;2023-07-02T14:22:41;13.30;;;2.70;;
51066;SDS011;37112;45.892;-123.962;2023-07-02T14:25:14;19.10;;;2.60;;
51066;SDS011;37112;45.892;-123.962;2023-07-02T14:28:04;12.60;;;2.80;;
51066;SDS011;37112;45.892;-123.962;2023-07-02T14:30:26;10.20;;;1.90;;
51066;SDS011;37112;45.892;-123.962;2023-07-02T14:32:45;20.60;;;3.10;;